Main page
METAR-TAF:

METAR-TAF

Airports :

Fliegerhorst Meppen

Meppen, Germany

latitude: 52-43-24N, longitude: 007-19-35E, elevation: 21 m

Current weather observation

The report was made 1 hour and 8 minutes ago, at 11:20 UTC
Wind 6 kt from the West
Temperature 8°C
Humidity 57%
Pressure 1021 hPa

METAR: ETWM 011120Z AUTO 27006KT //// // ////// 08/M00 Q1021 ///

Time: 14:28 (12:28 UTC)


TAF: missing

Weather observations and forecasts of more than 4000 airports (METAR and TAF reports).

The available stations are represented by yellow and red dots on the map.

Hover mouse over dot to see the name of the station.

Then click to see weather observations and forecasts.

To change the map : click on the green buttons with a black cross to zoom in, on the green button with a dash to zoom out, or on the green arrows for adjacent maps.


METAR-TAF: